createdAt,value
2022-12-01T00:01:13.887Z,102932.72
2022-12-01T00:03:40.616Z,102932.38
2022-12-01T00:06:11.505Z,102937.34
2022-12-01T00:08:38.203Z,102925.75
2022-12-01T00:11:12.943Z,102921.03
2022-12-01T00:13:39.600Z,102911.88
2022-12-01T00:16:13.442Z,102911.47
2022-12-01T00:18:40.197Z,102925.88
2022-12-01T00:21:13.147Z,102915.06
2022-12-01T00:23:43.304Z,102917.22
2022-12-01T00:26:09.897Z,102915.13
2022-12-01T00:28:36.713Z,102911.19
2022-12-01T00:31:07.975Z,102912.41
2022-12-01T00:33:34.525Z,102920.81
2022-12-01T00:36:02.052Z,102917.78
2022-12-01T00:38:29.478Z,102915.56
2022-12-01T00:40:56.195Z,102918.75
2022-12-01T00:43:22.950Z,102910.63
2022-12-01T00:45:51.940Z,102922.41
2022-12-01T00:48:24.350Z,102911.81
2022-12-01T00:50:55.015Z,102914.91
2022-12-01T00:53:22.949Z,102921.50
2022-12-01T00:55:49.465Z,102925.50
2022-12-01T00:58:16.102Z,102916.38
2022-12-01T01:00:42.681Z,102904.88
2022-12-01T01:03:09.984Z,102916.72
2022-12-01T01:05:38.015Z,102918.31
2022-12-01T01:08:13.544Z,102916.97
2022-12-01T01:10:41.572Z,102917.78
2022-12-01T01:13:08.624Z,102923.72
2022-12-01T01:15:35.440Z,102919.34
2022-12-01T01:18:02.236Z,102911.97
2022-12-01T01:20:29.657Z,102911.97
2022-12-01T01:22:56.239Z,102920.97
2022-12-01T01:25:23.017Z,102918.63
2022-12-01T01:27:49.989Z,102910.09
2022-12-01T01:30:17.348Z,102915.56
2022-12-01T01:32:43.910Z,102912.34
2022-12-01T01:35:10.459Z,102911.75
2022-12-01T01:37:36.953Z,102919.09
2022-12-01T01:40:05.897Z,102930.50
2022-12-01T01:42:32.407Z,102929.84
2022-12-01T01:44:59.145Z,102928.31
2022-12-01T01:47:35.219Z,102938.03
2022-12-01T01:50:09.487Z,102938.16
2022-12-01T01:52:40.447Z,102937.28
2022-12-01T01:55:07.886Z,102946.06
2022-12-01T01:57:34.845Z,102944.38
2022-12-01T02:00:15.434Z,102954.81
2022-12-01T02:02:44.323Z,102956.66
2022-12-01T02:05:16.560Z,102951.34
2022-12-01T02:07:43.716Z,102944.66
2022-12-01T02:10:13.606Z,102948.94
2022-12-01T02:13:05.693Z,102945.38
2022-12-01T02:16:03.578Z,102945.47
2022-12-01T02:18:45.543Z,102946.41
2022-12-01T02:21:35.135Z,102954.13
2022-12-01T02:24:25.918Z,102955.03
2022-12-01T02:27:16.351Z,102948.94
2022-12-01T02:30:13.991Z,102949.75
2022-12-01T02:32:48.104Z,102949.81
2022-12-01T02:35:33.579Z,102947.16
2022-12-01T02:38:18.121Z,102942.00
2022-12-01T02:41:06.732Z,102928.16
2022-12-01T02:43:47.140Z,102928.03
2022-12-01T02:46:22.485Z,102928.03
2022-12-01T02:48:53.231Z,102922.72
2022-12-01T02:51:24.702Z,102926.09
2022-12-01T02:53:52.935Z,102914.06
2022-12-01T02:56:22.466Z,102911.38
2022-12-01T02:58:49.334Z,102908.06
2022-12-01T03:01:30.679Z,102901.81
2022-12-01T03:04:16.211Z,102903.66
2022-12-01T03:07:04.577Z,102906.03
2022-12-01T03:10:09.099Z,102905.06
2022-12-01T03:12:45.793Z,102898.88
2022-12-01T03:15:28.955Z,102901.47
2022-12-01T03:18:23.448Z,102907.53
2022-12-01T03:21:03.075Z,102906.44
2022-12-01T03:23:34.519Z,102918.59
2022-12-01T03:26:05.087Z,102917.72
2022-12-01T03:28:37.851Z,102914.16
2022-12-01T03:31:09.158Z,102923.56
2022-12-01T03:33:43.505Z,102915.53
2022-12-01T03:36:14.934Z,102915.50
2022-12-01T03:38:46.616Z,102926.59
2022-12-01T03:41:16.584Z,102921.31
2022-12-01T03:43:48.626Z,102932.28
2022-12-01T03:46:25.488Z,102935.59
2022-12-01T03:48:52.175Z,102934.47
2022-12-01T03:51:32.062Z,102946.31
2022-12-01T03:54:16.627Z,102944.38
2022-12-01T03:56:49.828Z,102939.78
2022-12-01T03:59:19.724Z,102940.59
2022-12-01T04:01:46.940Z,102947.28
2022-12-01T04:04:15.039Z,102953.31
2022-12-01T04:06:44.664Z,102955.81
2022-12-01T04:09:11.640Z,102946.88
2022-12-01T04:11:38.202Z,102954.69
2022-12-01T04:14:04.723Z,102953.72
2022-12-01T04:16:31.416Z,102957.91
2022-12-01T04:18:58.014Z,102962.19
2022-12-01T04:21:24.559Z,102967.25
2022-12-01T04:23:51.133Z,102965.31
2022-12-01T04:26:17.747Z,102970.47
2022-12-01T04:28:44.451Z,102963.22
2022-12-01T04:31:11.076Z,102972.94
2022-12-01T04:33:37.631Z,102972.06
2022-12-01T04:36:04.415Z,102957.94
2022-12-01T04:38:31.216Z,102971.91
2022-12-01T04:40:58.359Z,102967.47
2022-12-01T04:43:26.430Z,102966.44
2022-12-01T04:45:52.915Z,102959.34
2022-12-01T04:48:19.497Z,102962.91
2022-12-01T04:50:49.158Z,102956.53
2022-12-01T04:53:15.740Z,102961.69
2022-12-01T04:55:42.278Z,102966.84
2022-12-01T04:58:08.853Z,102978.00
2022-12-01T05:00:35.536Z,102971.88
2022-12-01T05:03:02.300Z,102966.50
2022-12-01T05:05:29.606Z,102981.38
2022-12-01T05:07:58.035Z,102975.34
2022-12-01T05:10:24.656Z,102968.38
2022-12-01T05:12:51.197Z,102969.16
2022-12-01T05:15:18.042Z,102956.88
2022-12-01T05:17:44.638Z,102958.38
2022-12-01T05:20:19.507Z,102970.53
2022-12-01T05:23:04.990Z,102966.97
2022-12-01T05:25:32.873Z,102967.81
2022-12-01T05:27:59.410Z,102971.09
2022-12-01T05:30:28.694Z,102975.09
2022-12-01T05:32:55.830Z,102972.44
2022-12-01T05:35:22.374Z,102974.22
2022-12-01T05:37:48.926Z,102971.41
2022-12-01T05:40:15.575Z,102979.91
2022-12-01T05:42:42.092Z,102980.53
2022-12-01T05:45:09.134Z,102983.13
2022-12-01T05:47:35.754Z,102979.56
2022-12-01T05:50:05.836Z,102989.84
2022-12-01T05:52:36.204Z,102982.94
2022-12-01T05:55:05.021Z,102980.22
2022-12-01T05:57:33.707Z,102994.19
2022-12-01T06:00:00.527Z,102992.50
2022-12-01T06:02:27.153Z,102992.41
2022-12-01T06:04:53.818Z,102990.75
2022-12-01T06:07:21.138Z,102985.41
2022-12-01T06:09:48.317Z,102992.41
2022-12-01T06:12:14.947Z,102990.75
2022-12-01T06:14:41.501Z,102982.94
2022-12-01T06:17:07.975Z,102981.16
2022-12-01T06:19:35.869Z,102988.72
2022-12-01T06:22:02.623Z,102987.81
2022-12-01T06:24:29.370Z,102992.19
2022-12-01T06:26:55.918Z,102990.41
2022-12-01T06:29:22.621Z,102983.34
2022-12-01T06:31:49.333Z,102986.84
2022-12-01T06:34:15.930Z,102994.66
2022-12-01T06:36:42.465Z,102996.44
2022-12-01T06:39:10.092Z,102983.38
2022-12-01T06:41:37.831Z,102989.50
2022-12-01T06:44:04.877Z,102985.97
2022-12-01T06:46:31.483Z,102984.81
2022-12-01T06:48:58.079Z,102980.34
2022-12-01T06:51:24.640Z,102975.50
2022-12-01T06:53:55.038Z,102985.81
2022-12-01T06:56:22.531Z,102987.34
2022-12-01T06:58:50.393Z,102995.22
2022-12-01T07:01:18.294Z,102994.25
2022-12-01T07:03:54.121Z,102994.06
2022-12-01T07:06:20.692Z,102997.53
2022-12-01T07:08:47.446Z,102995.84
2022-12-01T07:11:15.768Z,102995.75
2022-12-01T07:13:43.925Z,102997.53
2022-12-01T07:16:10.793Z,103003.66
2022-12-01T07:18:38.233Z,103001.97
2022-12-01T07:21:08.964Z,103008.06
2022-12-01T07:23:36.181Z,103003.91
2022-12-01T07:26:11.732Z,103008.34
2022-12-01T07:28:38.499Z,103010.91
2022-12-01T07:31:13.231Z,103009.16
2022-12-01T07:33:40.278Z,103023.91
2022-12-01T07:36:08.039Z,103013.75
2022-12-01T07:38:36.114Z,103012.94
2022-12-01T07:41:08.397Z,103014.72
2022-12-01T07:43:35.616Z,103013.09
2022-12-01T07:46:22.722Z,103017.44
2022-12-01T07:48:51.727Z,103015.84
2022-12-01T07:51:19.548Z,103021.94
2022-12-01T07:53:47.522Z,103024.38
2022-12-01T07:56:14.253Z,103028.84
2022-12-01T07:58:41.429Z,103032.41
2022-12-01T08:01:09.135Z,103041.06
2022-12-01T08:03:36.561Z,103049.78
2022-12-01T08:06:04.393Z,103043.03
2022-12-01T08:08:33.036Z,103046.56
2022-12-01T08:11:01.775Z,103043.19
2022-12-01T08:13:28.789Z,103047.53
2022-12-01T08:15:55.931Z,103053.66
2022-12-01T08:18:23.198Z,103056.38
2022-12-01T08:20:57.117Z,103047.09
2022-12-01T08:23:23.730Z,103051.34
2022-12-01T08:25:50.287Z,103052.56
2022-12-01T08:28:16.908Z,103049.00
2022-12-01T08:30:43.619Z,103045.66
2022-12-01T08:33:10.229Z,103052.56
2022-12-01T08:35:36.868Z,103055.38
2022-12-01T08:38:04.066Z,103056.44
2022-12-01T08:40:30.971Z,103045.28
2022-12-01T08:42:57.601Z,103046.31
2022-12-01T08:45:24.337Z,103044.63
2022-12-01T08:47:50.830Z,103043.09
2022-12-01T08:50:17.410Z,103053.72
2022-12-01T08:52:44.152Z,103048.66
2022-12-01T08:55:10.904Z,103049.00
2022-12-01T08:57:37.694Z,103057.75
2022-12-01T09:00:04.898Z,103052.00
2022-12-01T09:02:31.551Z,103062.69
2022-12-01T09:04:58.297Z,103058.41
2022-12-01T09:07:26.822Z,103063.91
2022-12-01T09:09:53.585Z,103071.94
2022-12-01T09:12:20.086Z,103067.78
2022-12-01T09:14:46.799Z,103075.88
2022-12-01T09:17:14.023Z,103068.25
2022-12-01T09:19:40.620Z,103064.06
2022-12-01T09:22:07.260Z,103073.06
2022-12-01T09:24:33.864Z,103077.59
2022-12-01T09:27:00.984Z,103080.34
2022-12-01T09:29:27.447Z,103063.81
2022-12-01T09:31:58.241Z,103080.66
2022-12-01T09:34:25.231Z,103089.44
2022-12-01T09:36:55.656Z,103097.22
2022-12-01T09:39:22.214Z,103086.03
2022-12-01T09:42:11.287Z,103108.03
2022-12-01T09:44:49.355Z,103103.81
2022-12-01T09:47:25.330Z,103095.47
2022-12-01T09:50:10.169Z,103092.31
2022-12-01T09:52:45.095Z,103084.66
2022-12-01T09:55:13.593Z,103104.84
2022-12-01T09:57:42.349Z,103094.44
2022-12-01T10:00:21.775Z,103101.56
2022-12-01T10:03:21.948Z,103099.28
2022-12-01T10:06:25.348Z,103090.91
2022-12-01T10:08:48.700Z,103098.94
2022-12-01T10:11:34.408Z,103080.88
2022-12-01T10:14:01.858Z,103092.69
2022-12-01T10:16:43.072Z,103077.38
2022-12-01T10:19:22.992Z,103076.06
2022-12-01T10:22:08.615Z,103078.84
2022-12-01T10:24:52.834Z,103081.66
2022-12-01T10:27:22.468Z,103078.38
2022-12-01T10:29:58.067Z,103067.84
2022-12-01T10:32:50.073Z,103067.34
2022-12-01T10:35:17.651Z,103075.50
2022-12-01T10:37:46.204Z,103073.09
2022-12-01T10:40:17.081Z,103066.16
2022-12-01T10:42:46.175Z,103081.22
2022-12-01T10:45:27.645Z,103084.81
2022-12-01T10:48:16.109Z,103075.56
2022-12-01T10:50:48.029Z,103071.47
2022-12-01T10:53:32.868Z,103064.56
2022-12-01T10:56:15.137Z,103056.50
2022-12-01T10:58:55.702Z,103054.72
2022-12-01T11:01:27.633Z,103059.69
2022-12-01T11:04:06.991Z,103067.84
2022-12-01T11:06:34.892Z,103049.44
2022-12-01T11:09:05.111Z,103049.81
2022-12-01T11:11:38.057Z,103051.84
2022-12-01T11:14:17.421Z,103047.69
2022-12-01T11:16:46.647Z,103044.47
2022-12-01T11:19:28.478Z,103048.03
2022-12-01T11:21:56.749Z,103036.03
2022-12-01T11:24:33.252Z,103021.38
2022-12-01T11:27:00.705Z,103018.72
2022-12-01T11:29:32.608Z,103011.97
2022-12-01T11:32:00.713Z,103017.13
2022-12-01T11:34:31.308Z,103018.00
2022-12-01T11:37:01.487Z,103011.97
2022-12-01T11:39:43.773Z,102999.19
2022-12-01T11:42:28.273Z,102985.44
2022-12-01T11:45:05.420Z,102995.56
2022-12-01T11:47:31.973Z,102986.22
2022-12-01T11:50:01.441Z,102982.13
2022-12-01T11:52:34.115Z,102985.72
2022-12-01T11:55:12.218Z,102985.22
2022-12-01T11:57:44.899Z,102985.16
2022-12-01T12:00:16.914Z,102989.50
2022-12-01T12:02:46.691Z,102978.28
2022-12-01T12:05:30.278Z,102975.69
2022-12-01T12:08:07.516Z,102970.44
2022-12-01T12:10:56.185Z,102981.03
2022-12-01T12:13:44.762Z,102975.97
2022-12-01T12:16:37.340Z,102973.34
2022-12-01T12:19:14.738Z,102968.03
2022-12-01T12:22:11.205Z,102957.38
2022-12-01T12:25:18.875Z,102960.84
2022-12-01T12:27:53.812Z,102955.69
2022-12-01T12:30:28.830Z,102954.63
2022-12-01T12:33:05.150Z,102954.19
2022-12-01T12:35:47.455Z,102966.41
2022-12-01T12:38:20.164Z,102963.09
2022-12-01T12:40:46.810Z,102967.53
2022-12-01T12:43:48.314Z,102963.88
2022-12-01T12:46:31.230Z,102969.88
2022-12-01T12:49:21.480Z,102964.53
2022-12-01T12:52:02.596Z,102976.50
2022-12-01T12:54:41.868Z,102974.72
2022-12-01T12:57:27.128Z,102978.06
2022-12-01T13:00:28.939Z,102972.59
2022-12-01T13:03:14.135Z,102980.03
2022-12-01T13:05:47.084Z,102973.81
2022-12-01T13:08:19.356Z,102976.84
2022-12-01T13:11:08.438Z,102973.34
2022-12-01T13:13:53.369Z,102964.53
2022-12-01T13:16:26.113Z,102953.78
2022-12-01T13:19:03.039Z,102962.50
2022-12-01T13:21:36.595Z,102957.97
2022-12-01T13:24:04.822Z,102948.25
2022-12-01T13:26:34.605Z,102943.28
2022-12-01T13:29:06.113Z,102943.69
2022-12-01T13:31:43.935Z,102962.72
2022-12-01T13:34:19.187Z,102953.09
2022-12-01T13:36:53.769Z,102962.72
2022-12-01T13:39:29.152Z,102948.59
2022-12-01T13:42:09.309Z,102962.56
2022-12-01T13:44:42.553Z,102959.88
2022-12-01T13:47:11.775Z,102962.34
2022-12-01T13:49:50.256Z,102968.97
2022-12-01T13:52:23.114Z,102966.34
2022-12-01T13:55:08.101Z,102964.56
2022-12-01T13:57:37.980Z,102963.53
2022-12-01T14:00:04.577Z,102961.66
2022-12-01T14:02:39.052Z,102954.59
2022-12-01T14:05:24.349Z,102947.53
2022-12-01T14:07:52.533Z,102934.97
2022-12-01T14:10:19.379Z,102949.00
2022-12-01T14:12:46.698Z,102933.13
2022-12-01T14:15:33.736Z,102947.13
2022-12-01T14:18:06.190Z,102947.13
2022-12-01T14:20:43.184Z,102940.81
2022-12-01T14:23:27.064Z,102931.97
2022-12-01T14:25:59.113Z,102942.91
2022-12-01T14:28:59.841Z,102954.22
2022-12-01T14:31:32.617Z,102960.16
2022-12-01T14:34:02.280Z,102959.88
2022-12-01T14:36:53.768Z,102954.84
2022-12-01T14:39:25.912Z,102947.94
2022-12-01T14:41:57.080Z,102954.72
2022-12-01T14:44:32.780Z,102947.78
2022-12-01T14:47:13.390Z,102942.56
2022-12-01T14:49:47.237Z,102944.53
2022-12-01T14:52:38.133Z,102941.91
2022-12-01T14:55:13.082Z,102939.09
2022-12-01T14:57:44.144Z,102930.34
2022-12-01T15:00:20.165Z,102951.19
2022-12-01T15:02:56.042Z,102946.69
2022-12-01T15:05:28.558Z,102947.50
2022-12-01T15:08:18.577Z,102949.28
2022-12-01T15:10:59.814Z,102952.66
2022-12-01T15:13:29.164Z,102943.91
2022-12-01T15:15:59.865Z,102946.22
2022-12-01T15:18:32.322Z,102941.72
2022-12-01T15:21:11.110Z,102941.66
2022-12-01T15:23:52.065Z,102932.75
2022-12-01T15:26:23.485Z,102940.78
2022-12-01T15:28:51.192Z,102932.88
2022-12-01T15:31:18.043Z,102935.53
2022-12-01T15:33:51.989Z,102923.19
2022-12-01T15:36:19.756Z,102920.31
2022-12-01T15:38:48.094Z,102923.84
2022-12-01T15:41:30.032Z,102924.75
2022-12-01T15:43:59.363Z,102913.25
2022-12-01T15:46:34.089Z,102929.81
2022-12-01T15:49:19.353Z,102925.47
2022-12-01T15:51:48.901Z,102935.78
2022-12-01T15:54:25.562Z,102930.63
2022-12-01T15:56:57.564Z,102913.97
2022-12-01T15:59:28.829Z,102925.34
2022-12-01T16:01:56.233Z,102934.03
2022-12-01T16:04:32.271Z,102930.50
2022-12-01T16:07:06.952Z,102935.66
2022-12-01T16:09:57.603Z,102933.88
2022-12-01T16:12:29.852Z,102928.59
2022-12-01T16:15:00.584Z,102933.75
2022-12-01T16:17:48.824Z,102930.13
2022-12-01T16:20:24.417Z,102928.44
2022-12-01T16:22:57.099Z,102930.88
2022-12-01T16:25:41.487Z,102917.56
2022-12-01T16:28:22.526Z,102928.81
2022-12-01T16:30:49.951Z,102921.00
2022-12-01T16:33:19.957Z,102920.72
2022-12-01T16:35:46.498Z,102917.13
2022-12-01T16:38:21.933Z,102932.88
2022-12-01T16:41:16.040Z,102933.59
2022-12-01T16:43:59.173Z,102926.69
2022-12-01T16:46:29.654Z,102924.88
2022-12-01T16:48:56.303Z,102932.59
2022-12-01T16:51:29.903Z,102924.66
2022-12-01T16:54:10.246Z,102938.25
2022-12-01T16:56:36.782Z,102938.94
2022-12-01T16:59:03.402Z,102937.06
2022-12-01T17:01:30.113Z,102949.22
2022-12-01T17:03:56.987Z,102937.00
2022-12-01T17:06:24.292Z,102952.75
2022-12-01T17:08:51.742Z,102940.53
2022-12-01T17:11:18.426Z,102945.69
2022-12-01T17:13:45.372Z,102931.41
2022-12-01T17:16:17.977Z,102948.25
2022-12-01T17:18:45.428Z,102949.75
2022-12-01T17:21:12.123Z,102947.97
2022-12-01T17:23:39.324Z,102951.34
2022-12-01T17:26:11.828Z,102948.47
2022-12-01T17:28:39.151Z,102946.69
2022-12-01T17:31:07.209Z,102947.59
2022-12-01T17:33:35.212Z,102947.53
2022-12-01T17:36:04.506Z,102945.75
2022-12-01T17:38:34.743Z,102955.38
2022-12-01T17:41:03.955Z,102960.53
2022-12-01T17:43:30.620Z,102964.91
2022-12-01T17:45:57.624Z,102957.00
2022-12-01T17:48:24.382Z,102958.06
2022-12-01T17:50:51.011Z,102961.44
2022-12-01T17:53:17.716Z,102952.69
2022-12-01T17:55:44.709Z,102953.47
2022-12-01T17:58:11.428Z,102961.28
2022-12-01T18:00:38.113Z,102960.41
2022-12-01T18:03:04.868Z,102953.31
2022-12-01T18:05:31.639Z,102958.63
2022-12-01T18:07:58.753Z,102961.22
2022-12-01T18:10:25.500Z,102962.00
2022-12-01T18:12:52.037Z,102950.75
2022-12-01T18:15:18.693Z,102954.94
2022-12-01T18:17:45.202Z,102954.13
2022-12-01T18:20:12.029Z,102957.66
2022-12-01T18:22:38.628Z,102947.06
2022-12-01T18:25:05.888Z,102946.38
2022-12-01T18:27:32.513Z,102951.72
2022-12-01T18:29:59.137Z,102926.25
2022-12-01T18:32:25.940Z,102939.34
2022-12-01T18:34:53.002Z,102939.50
2022-12-01T18:37:19.879Z,102942.88
2022-12-01T18:39:46.455Z,102942.72
2022-12-01T18:42:13.251Z,102948.91
2022-12-01T18:44:39.804Z,102937.56
2022-12-01T18:47:06.454Z,102935.81
2022-12-01T18:49:33.141Z,102938.31
2022-12-01T18:51:59.917Z,102940.00
2022-12-01T18:54:26.852Z,102936.38
2022-12-01T18:56:53.706Z,102939.84
2022-12-01T18:59:20.333Z,102943.28
2022-12-01T19:01:47.123Z,102927.47
2022-12-01T19:04:14.965Z,102937.84
2022-12-01T19:06:42.663Z,102938.81
2022-12-01T19:09:11.474Z,102946.53
2022-12-01T19:11:39.297Z,102944.84
2022-12-01T19:14:11.942Z,102940.41
2022-12-01T19:16:39.437Z,102941.25
2022-12-01T19:19:06.056Z,102952.41
2022-12-01T19:21:32.715Z,102948.22
2022-12-01T19:23:59.412Z,102956.84
2022-12-01T19:26:26.042Z,102945.66
2022-12-01T19:28:52.979Z,102947.25
2022-12-01T19:31:24.162Z,102946.41
2022-12-01T19:33:55.624Z,102947.19
2022-12-01T19:36:27.486Z,102949.78
2022-12-01T19:38:57.460Z,102954.81
2022-12-01T19:41:25.556Z,102945.31
2022-12-01T19:43:53.378Z,102936.59
2022-12-01T19:46:22.829Z,102927.78
2022-12-01T19:48:55.232Z,102928.66
2022-12-01T19:51:35.744Z,102948.63
2022-12-01T19:54:07.151Z,102952.13
2022-12-01T19:56:34.366Z,102944.50
2022-12-01T19:59:02.011Z,102938.38
2022-12-01T20:01:31.853Z,102936.59
2022-12-01T20:03:58.496Z,102932.22
2022-12-01T20:06:30.766Z,102940.66
2022-12-01T20:08:59.526Z,102949.34
2022-12-01T20:11:28.511Z,102949.47
2022-12-01T20:13:55.671Z,102947.56
2022-12-01T20:16:24.311Z,102946.69
2022-12-01T20:18:51.740Z,102946.78
2022-12-01T20:21:21.902Z,102951.03
2022-12-01T20:23:51.890Z,102930.78
2022-12-01T20:26:20.023Z,102936.16
2022-12-01T20:28:49.196Z,102954.41
2022-12-01T20:31:21.901Z,102955.16
2022-12-01T20:33:49.384Z,102955.16
2022-12-01T20:36:16.142Z,102953.22
2022-12-01T20:38:42.825Z,102963.50
2022-12-01T20:41:10.887Z,102965.13
2022-12-01T20:43:37.718Z,102956.34
2022-12-01T20:46:04.995Z,102954.53
2022-12-01T20:48:32.451Z,102949.22
2022-12-01T20:51:03.819Z,102961.44
2022-12-01T20:53:30.722Z,102960.56
2022-12-01T20:55:57.326Z,102955.16
2022-12-01T20:58:24.125Z,102953.56
2022-12-01T21:00:50.763Z,102956.13
2022-12-01T21:03:17.532Z,102953.47
2022-12-01T21:05:44.459Z,102952.56
2022-12-01T21:08:13.276Z,102943.75
2022-12-01T21:10:45.276Z,102961.28
2022-12-01T21:13:21.835Z,102941.25
2022-12-01T21:15:55.456Z,102947.44
2022-12-01T21:18:29.758Z,102955.97
2022-12-01T21:21:04.742Z,102948.09
2022-12-01T21:23:31.343Z,102945.53
2022-12-01T21:25:57.844Z,102944.63
2022-12-01T21:28:26.652Z,102949.06
2022-12-01T21:31:07.667Z,102948.09
2022-12-01T21:33:35.767Z,102938.53
2022-12-01T21:36:15.656Z,102937.41
2022-12-01T21:38:43.663Z,102943.44
2022-12-01T21:41:27.101Z,102936.28
2022-12-01T21:44:07.724Z,102938.28
2022-12-01T21:46:37.308Z,102934.75
2022-12-01T21:49:17.469Z,102923.41
2022-12-01T21:51:45.075Z,102925.09
2022-12-01T21:54:22.883Z,102928.66
2022-12-01T21:56:52.172Z,102922.53
2022-12-01T21:59:23.571Z,102921.81
2022-12-01T22:02:01.218Z,102916.53
2022-12-01T22:04:31.506Z,102917.56
2022-12-01T22:06:58.370Z,102921.09
2022-12-01T22:09:29.373Z,102916.00
2022-12-01T22:11:59.584Z,102918.66
2022-12-01T22:14:34.389Z,102918.75
2022-12-01T22:17:07.165Z,102928.31
2022-12-01T22:19:37.621Z,102911.84
2022-12-01T22:22:13.439Z,102914.63
2022-12-01T22:24:48.961Z,102912.88
2022-12-01T22:27:38.540Z,102916.28
2022-12-01T22:30:08.160Z,102920.53
2022-12-01T22:32:37.569Z,102913.59
2022-12-01T22:35:16.267Z,102915.22
2022-12-01T22:37:48.574Z,102918.59
2022-12-01T22:40:49.219Z,102916.81
2022-12-01T22:43:15.698Z,102917.69
2022-12-01T22:45:43.663Z,102904.50
2022-12-01T22:48:34.067Z,102900.34
2022-12-01T22:51:16.802Z,102903.56
2022-12-01T22:53:46.016Z,102910.50
2022-12-01T22:56:42.334Z,102903.56
2022-12-01T22:59:19.355Z,102900.78
2022-12-01T23:01:53.846Z,102900.03
2022-12-01T23:04:33.136Z,102904.28
2022-12-01T23:07:10.255Z,102907.91
2022-12-01T23:09:42.318Z,102907.91
2022-12-01T23:12:11.869Z,102915.63
2022-12-01T23:14:54.187Z,102924.16
2022-12-01T23:17:29.378Z,102919.81
2022-12-01T23:20:25.278Z,102916.25
2022-12-01T23:22:56.677Z,102922.22
2022-12-01T23:25:24.962Z,102921.28
2022-12-01T23:27:52.801Z,102906.22
2022-12-01T23:30:20.837Z,102912.56
2022-12-01T23:33:03.930Z,102909.84
2022-12-01T23:35:32.468Z,102901.03
2022-12-01T23:37:58.996Z,102900.84
2022-12-01T23:40:34.863Z,102901.06
2022-12-01T23:43:23.000Z,102896.72
2022-12-01T23:45:52.836Z,102894.09
2022-12-01T23:48:23.160Z,102885.59
2022-12-01T23:50:52.792Z,102881.06
2022-12-01T23:53:32.450Z,102886.31
2022-12-01T23:56:09.135Z,102890.56
2022-12-01T23:58:35.764Z,102891.44
